Time;durP1;ratioP1;P1;durP2;ratioP2;P2;SDS_P1;SDS_P2;PMS_P1;PMS_P2;Temp;Humidity;BMP_temperature;BMP_pressure;BME280_temperature;BME280_humidity;BME280_pressure;Samples;Min_cycle;Max_cycle;Signal;HPM_P1;HPM_P2
2023/09/21 00:04:01;;;;;;;1999.90;999.90;;;;;;;16.57;100.00;99944.50;10457374;28;20129;-73
2023/09/21 00:09:04;;;;;;;1999.90;999.90;;;;;;;16.47;100.00;99933.16;10439580;28;20099;-72
2023/09/21 00:14:06;;;;;;;1999.90;999.90;;;;;;;16.46;100.00;99920.94;10456207;28;20484;-72
2023/09/21 00:19:10;;;;;;;1999.90;999.90;;;;;;;16.50;100.00;99920.47;10456994;28;20094;-73
2023/09/21 00:24:12;;;;;;;1999.90;999.90;;;;;;;16.50;100.00;99912.53;10439197;28;20045;-73
2023/09/21 00:29:15;;;;;;;1999.90;999.90;;;;;;;16.47;100.00;99906.72;10456586;28;20048;-73
2023/09/21 00:34:18;;;;;;;1999.90;999.90;;;;;;;16.43;100.00;99902.72;10456676;28;20048;-73
2023/09/21 00:39:20;;;;;;;1999.90;999.90;;;;;;;16.37;100.00;99887.47;10443923;28;20498;-73
2023/09/21 00:44:23;;;;;;;1999.90;999.90;;;;;;;16.45;100.00;99877.81;10464178;28;20045;-72
2023/09/21 00:49:26;;;;;;;1999.90;999.90;;;;;;;16.39;100.00;99875.78;10447033;28;20092;-74
2023/09/21 00:54:28;;;;;;;1999.90;999.90;;;;;;;16.44;100.00;99873.53;10429619;28;20482;-72
2023/09/21 00:59:35;;;;;;;1999.90;999.90;;;;;;;16.41;100.00;99860.59;10464187;28;20056;-73
2023/09/21 01:04:38;;;;;;;1999.90;999.90;;;;;;;16.47;100.00;99853.88;10463426;28;20481;-73
2023/09/21 01:09:40;;;;;;;1999.90;999.90;;;;;;;16.40;100.00;99843.09;10463882;28;20072;-73
2023/09/21 01:14:44;;;;;;;1999.90;999.90;;;;;;;16.44;100.00;99852.38;10446029;28;20041;-72
2023/09/21 01:19:47;;;;;;;1999.90;999.90;;;;;;;16.48;100.00;99837.06;10445909;28;20056;-73
2023/09/21 01:24:50;;;;;;;1999.90;999.90;;;;;;;16.29;100.00;99830.09;10445765;28;20041;-73
2023/09/21 01:29:52;;;;;;;1999.90;999.90;;;;;;;16.24;100.00;99827.91;10463060;28;20056;-73
2023/09/21 01:34:55;;;;;;;1999.90;999.90;;;;;;;16.33;100.00;99816.44;10445278;28;20055;-73
2023/09/21 01:39:57;;;;;;;1999.90;999.90;;;;;;;16.48;100.00;99814.13;10462641;28;20053;-73
2023/09/21 01:45:00;;;;;;;1999.90;999.90;;;;;;;16.23;100.00;99817.50;10461784;28;20053;-73
2023/09/21 01:50:06;;;;;;;1999.90;999.90;;;;;;;16.24;100.00;99805.94;10461398;28;20405;-74
2023/09/21 01:55:11;;;;;;;1999.90;999.90;;;;;;;16.34;100.00;99793.50;10461995;28;20080;-73
2023/09/21 02:00:27;;;;;;;1999.90;999.90;;;;;;;16.30;100.00;99806.16;10444687;28;20061;-73
2023/09/21 02:05:30;;;;;;;1999.90;999.90;;;;;;;16.58;100.00;99795.56;10445913;28;20041;-73
2023/09/21 02:10:33;;;;;;;1999.90;999.90;;;;;;;16.30;100.00;99777.09;10461470;28;20051;-73
2023/09/21 02:15:37;;;;;;;1999.90;999.90;;;;;;;16.28;100.00;99770.34;10442931;28;20526;-74
2023/09/21 02:20:44;;;;;;;1999.90;999.90;;;;;;;16.45;100.00;99766.03;10442793;28;20473;-74
2023/09/21 02:25:47;;;;;;;1999.90;999.90;;;;;;;16.56;100.00;99749.97;10460882;28;20052;-74
2023/09/21 02:30:50;;;;;;;1999.90;999.90;;;;;;;16.16;100.00;99770.53;10425898;28;20139;-73
2023/09/21 02:35:52;;;;;;;1999.90;999.90;;;;;;;15.98;100.00;99770.50;10442279;28;20048;-73
2023/09/21 02:40:54;;;;;;;1999.90;999.90;;;;;;;16.17;100.00;99763.44;10459662;28;20509;-74
2023/09/21 02:45:57;;;;;;;1999.90;999.90;;;;;;;16.21;100.00;99772.75;10459353;28;20080;-73
2023/09/21 02:51:04;;;;;;;1999.90;999.90;;;;;;;16.31;100.00;99756.84;10442184;28;20045;-73
2023/09/21 02:56:09;;;;;;;1999.90;999.90;;;;;;;16.50;100.00;99755.84;10458942;28;20469;-73
2023/09/21 03:01:15;;;;;;;1999.90;999.90;;;;;;;16.50;100.00;99748.72;10458238;28;20049;-73
2023/09/21 03:06:19;;;;;;;1999.90;999.90;;;;;;;16.66;100.00;99744.56;10458709;28;20052;-73
2023/09/21 03:11:23;;;;;;;1999.90;999.90;;;;;;;16.50;100.00;99738.16;10440776;28;20517;-73
2023/09/21 03:16:25;;;;;;;1999.90;999.90;;;;;;;16.65;100.00;99737.63;10458131;28;20171;-74
2023/09/21 03:21:27;;;;;;;1999.90;999.90;;;;;;;16.80;100.00;99730.81;10458682;28;20076;-73
2023/09/21 03:26:30;;;;;;;1999.90;999.90;;;;;;;16.97;99.81;99717.75;10440817;28;20053;-73
2023/09/21 03:31:32;;;;;;;1999.90;999.90;;;;;;;16.80;100.00;99724.69;10458292;28;20049;-73
2023/09/21 03:36:38;;;;;;;1999.90;999.90;;;;;;;16.81;100.00;99723.69;10458001;28;20052;-73
2023/09/21 03:41:40;;;;;;;1999.90;999.90;;;;;;;16.88;100.00;99719.50;10440565;28;20048;-73
2023/09/21 03:46:43;;;;;;;1999.90;999.90;;;;;;;16.76;100.00;99718.91;10439498;28;20508;-73
2023/09/21 03:51:47;;;;;;;1999.90;999.90;;;;;;;16.69;100.00;99718.69;10439923;28;20053;-74
2023/09/21 03:56:50;;;;;;;1999.90;999.90;;;;;;;16.71;100.00;99721.19;10456721;28;20569;-73
2023/09/21 04:01:53;;;;;;;1999.90;999.90;;;;;;;16.75;100.00;99703.19;10456662;28;20059;-73
2023/09/21 04:06:56;;;;;;;1999.90;999.90;;;;;;;16.71;100.00;99700.84;10457093;28;20052;-74
2023/09/21 04:12:00;;;;;;;1999.90;999.90;;;;;;;16.81;100.00;99702.56;10456038;28;20049;-74
2023/09/21 04:17:02;;;;;;;1999.90;999.90;;;;;;;16.70;100.00;99693.91;10456141;28;20482;-73
2023/09/21 04:22:05;;;;;;;1999.90;999.90;;;;;;;16.59;100.00;99690.69;10456732;28;20106;-73
2023/09/21 04:27:07;;;;;;;1999.90;999.90;;;;;;;16.56;100.00;99693.63;10455979;28;20500;-73
2023/09/21 04:32:10;;;;;;;1999.90;999.90;;;;;;;16.77;100.00;99682.72;10438836;28;20057;-73
2023/09/21 04:37:13;;;;;;;1999.90;999.90;;;;;;;16.85;99.95;99680.97;10455846;28;20405;-73
2023/09/21 04:42:15;;;;;;;1999.90;999.90;;;;;;;16.82;100.00;99683.91;10455590;28;20399;-73
2023/09/21 04:47:18;;;;;;;1999.90;999.90;;;;;;;16.76;100.00;99684.53;10456291;28;20049;-73
2023/09/21 04:52:21;;;;;;;1999.90;999.90;;;;;;;16.95;100.00;99691.44;10455546;28;20481;-73
2023/09/21 04:57:24;;;;;;;1999.90;999.90;;;;;;;16.76;100.00;99699.53;10456108;28;20049;-73
2023/09/21 05:02:26;;;;;;;1999.90;999.90;;;;;;;17.11;97.64;99692.53;10438389;28;20053;-73
2023/09/21 05:07:29;;;;;;;1999.90;999.90;;;;;;;16.99;100.00;99690.13;10455894;28;20103;-73
2023/09/21 05:12:31;;;;;;;1999.90;999.90;;;;;;;16.90;100.00;99680.53;10438104;28;20131;-74
2023/09/21 05:17:37;;;;;;;1999.90;999.90;;;;;;;16.88;100.00;99672.75;10455788;28;20052;-74
2023/09/21 05:22:39;;;;;;;1999.90;999.90;;;;;;;17.07;100.00;99663.75;10456851;28;20055;-73
2023/09/21 05:27:42;;;;;;;1999.90;999.90;;;;;;;16.97;100.00;99684.19;10462577;28;20528;-73
2023/09/21 05:32:44;;;;;;;1999.90;999.90;;;;;;;17.15;100.00;99684.13;10445433;28;20143;-74
2023/09/21 05:37:47;;;;;;;1999.90;999.90;;;;;;;17.08;100.00;99678.63;10462796;28;20131;-74
2023/09/21 05:42:50;;;;;;;1999.90;999.90;;;;;;;17.29;100.00;99684.53;10444043;28;20057;-73
2023/09/21 05:47:52;;;;;;;1999.90;999.90;;;;;;;17.21;100.00;99688.75;10462417;28;20079;-73
2023/09/21 05:52:56;;;;;;;1999.90;999.90;;;;;;;17.17;100.00;99673.38;10444361;28;20102;-74
2023/09/21 05:57:58;;;;;;;1999.90;999.90;;;;;;;17.26;100.00;99667.13;10580804;22;20051;-73
2023/09/21 06:03:01;;;;;;;1999.90;999.90;;;;;;;17.22;100.00;99666.63;10587320;28;20146;-73
2023/09/21 06:08:04;;;;;;;1999.90;999.90;;;;;;;17.24;100.00;99655.91;10569306;28;20059;-73
2023/09/21 06:13:07;;;;;;;1999.90;999.90;;;;;;;17.20;100.00;99649.28;10568829;28;20043;-74
2023/09/21 06:18:09;;;;;;;1999.90;999.90;;;;;;;17.23;100.00;99655.06;10586687;28;20082;-74
2023/09/21 06:23:12;;;;;;;1999.90;999.90;;;;;;;17.30;100.00;99649.13;10585915;28;20459;-74
2023/09/21 06:28:15;;;;;;;1999.90;999.90;;;;;;;17.30;100.00;99657.91;10586347;28;20051;-73
2023/09/21 06:33:18;;;;;;;1999.90;999.90;;;;;;;17.10;100.00;99652.03;10567756;28;20091;-73
2023/09/21 06:38:21;;;;;;;1999.90;999.90;;;;;;;17.41;100.00;99654.94;10585211;28;20047;-73
2023/09/21 06:43:29;;;;;;;1999.90;999.90;;;;;;;17.42;100.00;99661.91;10585788;28;20046;-74
2023/09/21 06:48:32;;;;;;;1999.90;999.90;;;;;;;17.57;100.00;99666.59;10584953;28;20555;-74
2023/09/21 06:53:36;;;;;;;1999.90;999.90;;;;;;;17.53;100.00;99673.19;10584324;28;20409;-73
2023/09/21 06:58:38;;;;;;;1999.90;999.90;;;;;;;17.41;100.00;99689.34;10585017;28;20055;-74
2023/09/21 07:03:41;;;;;;;1999.90;999.90;;;;;;;17.24;100.00;99690.28;10584157;28;20614;-73
2023/09/21 07:08:44;;;;;;;1999.90;999.90;;;;;;;17.13;100.00;99685.25;10584619;28;20044;-76
2023/09/21 07:13:47;;;;;;;1999.90;999.90;;;;;;;16.90;100.00;99704.31;10583714;28;20504;-76
2023/09/21 07:18:49;;;;;;;1999.90;999.90;;;;;;;16.70;100.00;99704.47;10584244;28;20058;-77
2023/09/21 07:23:52;;;;;;;1999.90;999.90;;;;;;;16.84;100.00;99707.53;10566021;28;20119;-77
2023/09/21 07:28:57;;;;;;;1999.90;999.90;;;;;;;16.76;100.00;99708.31;10583249;28;20083;-78
2023/09/21 07:34:02;;;;;;;1999.90;999.90;;;;;;;16.91;100.00;99705.94;10583616;28;20077;-80
2023/09/21 07:39:09;;;;;;;1999.90;999.90;;;;;;;16.95;100.00;99707.31;10582834;28;20504;-80
2023/09/21 07:44:13;;;;;;;1999.90;999.90;;;;;;;16.87;100.00;99716.00;10566031;28;20053;-80
2023/09/21 07:49:16;;;;;;;1999.90;999.90;;;;;;;16.94;100.00;99710.13;10582976;28;20048;-80
2023/09/21 07:54:18;;;;;;;1999.90;999.90;;;;;;;17.02;100.00;99703.06;10564118;28;20059;-80
2023/09/21 07:59:21;;;;;;;1999.90;999.90;;;;;;;16.88;100.00;99707.09;10582923;28;20092;-79
2023/09/21 08:04:23;;;;;;;1999.90;999.90;;;;;;;16.83;100.00;99711.19;10582703;28;20118;-75
2023/09/21 08:09:26;;;;;;;1999.90;999.90;;;;;;;16.94;100.00;99710.94;10582542;28;20126;-76
2023/09/21 08:14:34;;;;;;;1999.90;999.90;;;;;;;16.87;100.00;99720.47;10582381;28;20069;-74
2023/09/21 08:19:38;;;;;;;1999.90;999.90;;;;;;;16.77;100.00;99725.00;10582482;28;20467;-73
2023/09/21 08:24:41;;;;;;;1999.90;999.90;;;;;;;16.82;100.00;99728.00;10581523;28;20457;-72
2023/09/21 08:29:44;;;;;;;1999.90;999.90;;;;;;;16.70;100.00;99745.94;10563561;28;20155;-72
2023/09/21 08:34:48;;;;;;;1999.90;999.90;;;;;;;16.76;100.00;99755.06;10563827;28;20048;-72
2023/09/21 08:39:50;;;;;;;1999.90;999.90;;;;;;;16.99;100.00;99766.00;10581883;28;20052;-72
2023/09/21 08:44:53;;;;;;;1999.90;999.90;;;;;;;16.77;100.00;99767.28;10581127;28;20047;-72
2023/09/21 08:49:56;;;;;;;1999.90;999.90;;;;;;;16.83;100.00;99772.81;10581695;28;20108;-71
2023/09/21 08:54:58;;;;;;;1999.90;999.90;;;;;;;16.86;100.00;99784.91;10580701;28;20056;-72
2023/09/21 09:00:06;;;;;;;1999.90;999.90;;;;;;;16.83;100.00;99790.47;10567940;28;20563;-71
2023/09/21 09:05:09;;;;;;;1999.90;999.90;;;;;;;16.83;100.00;99796.59;10571738;28;20559;-72
2023/09/21 09:10:12;;;;;;;1999.90;999.90;;;;;;;16.80;100.00;99796.88;10589522;28;20054;-72
2023/09/21 09:15:15;;;;;;;1999.90;999.90;;;;;;;16.97;100.00;99794.41;10570472;28;20497;-72
2023/09/21 09:20:17;;;;;;;1999.90;999.90;;;;;;;16.94;100.00;99816.69;10570356;28;20460;-73
2023/09/21 09:25:21;;;;;;;1999.90;999.90;;;;;;;16.90;100.00;99825.91;10588849;28;20047;-73
2023/09/21 09:30:25;;;;;;;1999.90;999.90;;;;;;;17.06;100.00;99820.78;10570166;28;20511;-72
2023/09/21 09:35:29;;;;;;;1999.90;999.90;;;;;;;17.35;100.00;99805.56;10570349;28;20047;-72
2023/09/21 09:40:32;;;;;;;1999.90;999.90;;;;;;;17.34;100.00;99793.34;10570255;28;20050;-73
2023/09/21 09:45:40;;;;;;;1999.90;999.90;;;;;;;17.54;100.00;99797.41;10587563;28;20495;-72
2023/09/21 09:50:43;;;;;;;1999.90;999.90;;;;;;;17.53;100.00;99789.63;10570372;28;20051;-72
2023/09/21 09:55:46;;;;;;;1999.90;999.90;;;;;;;17.45;100.00;99804.47;10568829;28;20407;-73
2023/09/21 10:00:51;;;;;;;1999.90;999.90;;;;;;;17.49;100.00;99777.72;10568819;28;20430;-74
2023/09/21 10:05:54;;;;;;;1999.90;999.90;;;;;;;17.72;100.00;99776.16;10569551;28;20096;-75
2023/09/21 10:10:57;;;;;;;1999.90;999.90;;;;;;;17.75;100.00;99775.84;10569131;28;20051;-75
2023/09/21 10:16:04;;;;;;;1999.90;999.90;;;;;;;17.94;100.00;99788.03;10586168;28;20541;-75
2023/09/21 10:21:31;;;;;;;1999.90;999.90;;;;;;;18.01;100.00;99788.22;10586122;28;20060;-74
2023/09/21 10:26:38;;;;;;;1999.90;999.90;;;;;;;18.20;100.00;99782.63;10551730;28;20044;-74
2023/09/21 10:31:45;;;;;;;1999.90;999.90;;;;;;;18.23;100.00;99765.59;10568704;28;20122;-74
2023/09/21 10:36:50;;;;;;;1999.90;999.90;;;;;;;18.14;100.00;99766.53;10568053;28;20048;-74
2023/09/21 10:41:57;;;;;;;1999.90;999.90;;;;;;;18.28;100.00;99765.91;10585923;28;20054;-74
2023/09/21 10:47:00;;;;;;;1999.90;999.90;;;;;;;18.43;100.00;99760.00;10585719;28;20131;-73
2023/09/21 10:52:03;;;;;;;1999.90;999.90;;;;;;;18.90;100.00;99746.09;10585434;28;20097;-73
2023/09/21 10:57:05;;;;;;;1999.90;999.90;;;;;;;18.88;100.00;99729.53;10549888;28;20062;-73
2023/09/21 11:02:09;;;;;;;1999.90;999.90;;;;;;;18.87;100.00;99733.16;10550226;28;20055;-73
2023/09/21 11:07:17;;;;;;;1999.90;999.90;;;;;;;19.06;100.00;99719.53;10549446;28;20086;-73
2023/09/21 11:12:21;;;;;;;1999.90;999.90;;;;;;;19.04;100.00;99716.22;10566542;28;20051;-74
2023/09/21 11:17:24;;;;;;;1999.90;999.90;;;;;;;19.25;100.00;99710.38;10584314;28;20047;-73
2023/09/21 11:22:27;;;;;;;1999.90;999.90;;;;;;;19.54;100.00;99700.13;10583080;28;20573;-74
2023/09/21 11:27:29;;;;;;;1999.90;999.90;;;;;;;19.62;100.00;99706.22;10583961;28;20051;-74
2023/09/21 11:32:45;;;;;;;1999.90;999.90;;;;;;;19.17;100.00;99691.81;10583826;28;20047;-74
2023/09/21 11:37:51;;;;;;;1999.90;999.90;;;;;;;18.94;100.00;99692.53;10565656;28;20044;-75
2023/09/21 11:42:58;;;;;;;1999.90;999.90;;;;;;;19.03;100.00;99676.59;10582841;28;20508;-75
2023/09/21 11:48:00;;;;;;;1999.90;999.90;;;;;;;19.09;100.00;99668.78;10564646;28;20040;-76
2023/09/21 11:53:07;;;;;;;1999.90;999.90;;;;;;;19.06;100.00;99665.63;10583088;28;20081;-76
2023/09/21 11:58:11;;;;;;;1999.90;999.90;;;;;;;19.14;100.00;99656.84;10564629;28;20050;-75
2023/09/21 12:03:15;;;;;;;1999.90;999.90;;;;;;;18.96;100.00;99663.19;10547962;28;20131;-75
2023/09/21 12:08:21;;;;;;;1999.90;999.90;;;;;;;18.86;100.00;99651.94;10564149;28;20504;-75
2023/09/21 12:13:24;;;;;;;1999.90;999.90;;;;;;;19.04;100.00;99649.06;10582480;28;20126;-75
2023/09/21 12:18:28;;;;;;;1999.90;999.90;;;;;;;19.02;100.00;99645.78;10563683;28;20408;-75
2023/09/21 12:23:34;;;;;;;1999.90;999.90;;;;;;;19.06;100.00;99637.31;10564050;28;20043;-75
2023/09/21 12:28:36;;;;;;;1999.90;999.90;;;;;;;18.88;100.00;99637.53;10582111;28;20052;-75
2023/09/21 12:33:39;;;;;;;1999.90;999.90;;;;;;;19.02;100.00;99680.25;10584427;28;20526;-74
2023/09/21 12:38:45;;;;;;;1999.90;999.90;;;;;;;17.84;100.00;99646.97;10590244;28;20055;-74
2023/09/21 12:43:48;;;;;;;1999.90;999.90;;;;;;;17.56;100.00;99668.41;10571866;28;20404;-74
2023/09/21 12:48:50;;;;;;;1999.90;999.90;;;;;;;16.90;100.00;99691.09;10590377;28;20051;-73
2023/09/21 12:53:52;;;;;;;1999.90;999.90;;;;;;;16.68;100.00;99703.81;10590112;28;20047;-74
2023/09/21 12:58:58;;;;;;;1999.90;999.90;;;;;;;16.24;100.00;99713.50;10589257;28;20106;-71
2023/09/21 13:04:00;;;;;;;1999.90;999.90;;;;;;;15.87;100.00;99703.91;10589791;28;20055;-71
2023/09/21 13:09:04;;;;;;;1999.90;999.90;;;;;;;16.15;100.00;99691.47;10588935;28;20479;-71
2023/09/21 13:14:07;;;;;;;1999.90;999.90;;;;;;;16.16;100.00;99701.88;10588669;28;20046;-70
2023/09/21 13:19:09;;;;;;;1999.90;999.90;;;;;;;15.96;100.00;99700.38;10588567;28;20117;-70
2023/09/21 13:24:12;;;;;;;1999.90;999.90;;;;;;;15.86;100.00;99718.09;10588509;28;20079;-70
2023/09/21 13:29:14;;;;;;;1999.90;999.90;;;;;;;16.09;100.00;99714.03;10588165;28;20100;-70
2023/09/21 13:34:21;;;;;;;1999.90;999.90;;;;;;;15.89;100.00;99689.59;10588579;28;20040;-70
2023/09/21 13:39:24;;;;;;;1999.90;999.90;;;;;;;15.97;100.00;99680.94;10588450;28;20127;-70
2023/09/21 13:44:27;;;;;;;1999.90;999.90;;;;;;;15.91;100.00;99682.34;10587095;28;20446;-71
2023/09/21 13:49:29;;;;;;;1999.90;999.90;;;;;;;16.10;100.00;99676.06;10569383;28;20051;-71
2023/09/21 13:54:31;;;;;;;1999.90;999.90;;;;;;;15.96;100.00;99688.00;10587442;28;20135;-72
2023/09/21 13:59:34;;;;;;;1999.90;999.90;;;;;;;15.93;100.00;99682.19;10586980;28;20492;-71
2023/09/21 14:04:36;;;;;;;1999.90;999.90;;;;;;;15.90;100.00;99683.34;10568701;28;20395;-71
2023/09/21 14:09:39;;;;;;;1999.90;999.90;;;;;;;15.94;100.00;99666.22;10569242;28;20056;-71
2023/09/21 14:14:41;;;;;;;1999.90;999.90;;;;;;;16.00;100.00;99670.03;10586876;28;20046;-71
2023/09/21 14:19:44;;;;;;;1999.90;999.90;;;;;;;15.90;100.00;99671.94;10586778;28;20126;-71
2023/09/21 14:24:46;;;;;;;1999.90;999.90;;;;;;;15.93;100.00;99671.63;10586543;28;20055;-71
2023/09/21 14:29:49;;;;;;;1999.90;999.90;;;;;;;15.96;100.00;99658.13;10567744;28;20389;-71
2023/09/21 14:34:52;;;;;;;1999.90;999.90;;;;;;;15.97;100.00;99670.38;10586075;28;20122;-70
2023/09/21 14:39:56;;;;;;;1999.90;999.90;;;;;;;16.05;100.00;99654.56;10585398;28;20484;-71
2023/09/21 14:44:59;;;;;;;1999.90;999.90;;;;;;;15.88;100.00;99658.06;10585090;28;20113;-70
2023/09/21 14:50:07;;;;;;;1999.90;999.90;;;;;;;16.03;100.00;99645.16;10568106;28;20051;-71
2023/09/21 14:55:10;;;;;;;1999.90;999.90;;;;;;;15.86;100.00;99625.72;10583567;28;20585;-71
2023/09/21 15:00:15;;;;;;;1999.90;999.90;;;;;;;15.98;100.00;99614.75;10567138;28;20051;-71
2023/09/21 15:05:18;;;;;;;1999.90;999.90;;;;;;;15.39;100.00;99645.97;10566248;28;20435;-70
2023/09/21 15:10:20;;;;;;;1999.90;999.90;;;;;;;15.45;100.00;99636.66;10566108;28;20052;-70
2023/09/21 15:15:22;;;;;;;1999.90;999.90;;;;;;;15.48;100.00;99617.88;10583811;28;20122;-71
2023/09/21 15:20:26;;;;;;;1999.90;999.90;;;;;;;15.58;100.00;99605.47;10584450;28;20051;-71
2023/09/21 15:25:28;;;;;;;1999.90;999.90;;;;;;;15.66;100.00;99591.50;10583732;28;20400;-71
2023/09/21 15:30:31;;;;;;;1999.90;999.90;;;;;;;15.71;100.00;99575.25;10566068;28;20055;-71
2023/09/21 15:35:33;;;;;;;1999.90;999.90;;;;;;;15.86;100.00;99571.09;10565024;28;20525;-71
2023/09/21 15:40:35;;;;;;;1999.90;999.90;;;;;;;15.82;100.00;99543.38;10565685;28;20056;-70
2023/09/21 15:45:38;;;;;;;1999.90;999.90;;;;;;;15.65;100.00;99529.19;10582813;28;20494;-71
2023/09/21 15:50:41;;;;;;;1999.90;999.90;;;;;;;15.84;100.00;99522.13;10565358;28;20047;-71
2023/09/21 15:55:43;;;;;;;1999.90;999.90;;;;;;;15.84;100.00;99504.47;10564602;28;20052;-71
2023/09/21 16:00:47;;;;;;;1999.90;999.90;;;;;;;15.59;100.00;99500.75;10582237;28;20489;-71
2023/09/21 16:05:50;;;;;;;1999.90;999.90;;;;;;;15.58;100.00;99509.66;10564055;28;20510;-72
2023/09/21 16:10:55;;;;;;;1999.90;999.90;;;;;;;15.66;100.00;99498.34;10564600;28;20051;-71
2023/09/21 16:15:57;;;;;;;1999.90;999.90;;;;;;;15.58;100.00;99509.66;10564069;28;20456;-69
2023/09/21 16:21:00;;;;;;;1999.90;999.90;;;;;;;15.59;100.00;99513.97;10581670;28;20585;-69
2023/09/21 16:26:04;;;;;;;1999.90;999.90;;;;;;;15.25;100.00;99527.81;10564175;28;20044;-69
2023/09/21 16:31:06;;;;;;;1999.90;999.90;;;;;;;15.44;100.00;99526.03;10581432;28;20512;-69
2023/09/21 16:36:08;;;;;;;1999.90;999.90;;;;;;;15.38;100.00;99522.16;10581302;28;20044;-69
2023/09/21 16:41:11;;;;;;;1999.90;999.90;;;;;;;15.43;100.00;99556.81;10581243;28;20052;-69
2023/09/21 16:46:14;;;;;;;1999.90;999.90;;;;;;;15.74;100.00;99564.38;10581856;28;20044;-69
2023/09/21 16:51:37;;;;;;;1999.90;999.90;;;;;;;15.84;100.00;99551.16;10581758;28;20048;-69
2023/09/21 16:56:40;;;;;;;1999.90;999.90;;;;;;;16.01;100.00;99560.84;10563135;28;20058;-70
2023/09/21 17:01:43;;;;;;;1999.90;999.90;;;;;;;16.03;100.00;99556.22;10581062;28;20051;-69
2023/09/21 17:06:46;;;;;;;1999.90;999.90;;;;;;;15.83;100.00;99552.94;10580849;28;20071;-70
2023/09/21 17:11:48;;;;;;;1999.90;999.90;;;;;;;15.90;100.00;99546.09;10563337;28;20051;-70
2023/09/21 17:16:50;;;;;;;1999.90;999.90;;;;;;;15.70;100.00;99569.13;10563310;28;20051;-71
2023/09/21 17:21:56;;;;;;;1999.90;999.90;;;;;;;15.80;100.00;99563.78;10586957;28;20492;-71
2023/09/21 17:26:59;;;;;;;1999.90;999.90;;;;;;;15.85;100.00;99558.06;10588384;28;20452;-71
2023/09/21 17:32:01;;;;;;;1999.90;999.90;;;;;;;15.85;100.00;99568.63;10570797;28;20048;-71
2023/09/21 17:37:04;;;;;;;1999.90;999.90;;;;;;;15.70;100.00;99563.00;10588569;28;20046;-71
2023/09/21 17:42:07;;;;;;;1999.90;999.90;;;;;;;15.70;100.00;99574.41;10569838;28;20482;-71
2023/09/21 17:47:10;;;;;;;1999.90;999.90;;;;;;;15.78;100.00;99571.88;10587524;28;20048;-71
2023/09/21 17:52:14;;;;;;;1999.90;999.90;;;;;;;15.60;100.00;99568.34;10587967;28;20059;-71
2023/09/21 17:57:18;;;;;;;1999.90;999.90;;;;;;;15.59;100.00;99590.47;10569241;28;20062;-71
2023/09/21 18:02:21;;;;;;;1999.90;999.90;;;;;;;15.75;100.00;99602.97;10586965;28;20052;-71
2023/09/21 18:07:24;;;;;;;1999.90;999.90;;;;;;;15.63;100.00;99615.56;10587466;28;20039;-71
2023/09/21 18:12:26;;;;;;;1999.90;999.90;;;;;;;15.38;100.00;99623.22;10559114;22;20407;-73
2023/09/21 18:17:29;;;;;;;1999.90;999.90;;;;;;;15.41;100.00;99622.09;10544764;28;20044;-72
2023/09/21 18:22:32;;;;;;;1999.90;999.90;;;;;;;15.45;100.00;99614.69;10544622;28;20126;-72
2023/09/21 18:27:35;;;;;;;1999.90;999.90;;;;;;;15.35;100.00;99601.59;10525925;28;20513;-72
2023/09/21 18:32:37;;;;;;;1999.90;999.90;;;;;;;15.38;100.00;99598.63;10542957;28;20044;-72
2023/09/21 18:37:40;;;;;;;1999.90;999.90;;;;;;;15.30;100.00;99596.75;10543965;28;20082;-72
2023/09/21 18:42:42;;;;;;;1999.90;999.90;;;;;;;15.14;100.00;99625.56;10543779;28;20048;-72
2023/09/21 18:47:45;;;;;;;1999.90;999.90;;;;;;;15.33;100.00;99633.38;10542957;28;20043;-72
2023/09/21 18:52:47;;;;;;;1999.90;999.90;;;;;;;15.23;100.00;99646.63;10525450;28;20048;-73
2023/09/21 18:57:50;;;;;;;1999.90;999.90;;;;;;;15.18;100.00;99653.28;10525229;28;20127;-73
2023/09/21 19:02:53;;;;;;;1999.90;999.90;;;;;;;15.18;100.00;99661.19;10542983;28;20048;-73
2023/09/21 19:07:56;;;;;;;1999.90;999.90;;;;;;;15.21;100.00;99658.28;10542021;28;20381;-73
2023/09/21 19:12:59;;;;;;;1999.90;999.90;;;;;;;15.19;100.00;99649.69;10541781;28;20455;-73
2023/09/21 19:18:01;;;;;;;1999.90;999.90;;;;;;;15.11;100.00;99654.84;10524480;28;20056;-73
2023/09/21 19:23:04;;;;;;;1999.90;999.90;;;;;;;15.25;100.00;99664.94;10524297;28;20086;-73
2023/09/21 19:28:07;;;;;;;1999.90;999.90;;;;;;;15.24;100.00;99661.44;10541971;28;20123;-73
2023/09/21 19:33:09;;;;;;;1999.90;999.90;;;;;;;15.17;100.00;99664.81;10523361;28;20409;-73
2023/09/21 19:38:13;;;;;;;1999.90;999.90;;;;;;;14.94;100.00;99685.44;10523581;28;20048;-73
2023/09/21 19:43:15;;;;;;;1999.90;999.90;;;;;;;15.04;100.00;99700.22;10541015;28;20083;-73
2023/09/21 19:48:17;;;;;;;1999.90;999.90;;;;;;;15.04;100.00;99689.69;10541215;28;20051;-73
2023/09/21 19:53:23;;;;;;;1999.90;999.90;;;;;;;15.07;100.00;99687.75;10540987;28;20094;-73
2023/09/21 19:58:25;;;;;;;1999.90;999.90;;;;;;;15.06;100.00;99700.09;10541002;28;20040;-73
2023/09/21 20:03:28;;;;;;;1999.90;999.90;;;;;;;15.03;100.00;99693.31;10522812;28;20090;-74
2023/09/21 20:08:30;;;;;;;1999.90;999.90;;;;;;;14.99;100.00;99694.56;10522844;28;20051;-74
2023/09/21 20:13:33;;;;;;;1999.90;999.90;;;;;;;14.91;100.00;99709.44;10537981;28;20127;-73
2023/09/21 20:18:36;;;;;;;1999.90;999.90;;;;;;;14.98;100.00;99708.72;10522251;28;20076;-73
2023/09/21 20:23:38;;;;;;;1999.90;999.90;;;;;;;14.97;100.00;99708.88;10539543;28;20495;-74
2023/09/21 20:28:42;;;;;;;1999.90;999.90;;;;;;;15.04;100.00;99694.13;10521549;28;20416;-73
2023/09/21 20:33:45;;;;;;;1999.90;999.90;;;;;;;15.10;100.00;99700.66;10539303;28;20059;-73
2023/09/21 20:38:48;;;;;;;1999.90;999.90;;;;;;;14.94;100.00;99702.06;10539698;28;20051;-73
2023/09/21 20:43:50;;;;;;;1999.90;999.90;;;;;;;14.99;100.00;99714.81;10539098;28;20070;-73
2023/09/21 20:48:53;;;;;;;1999.90;999.90;;;;;;;15.04;100.00;99702.03;10521229;28;20422;-73
2023/09/21 20:53:55;;;;;;;1999.90;999.90;;;;;;;14.97;100.00;99711.50;10540711;28;20147;-72
2023/09/21 20:58:57;;;;;;;1999.90;999.90;;;;;;;14.88;100.00;99714.97;10547165;28;20417;-73
2023/09/21 21:04:00;;;;;;;1999.90;999.90;;;;;;;14.91;100.00;99726.09;10547719;28;20058;-73
2023/09/21 21:09:03;;;;;;;1999.90;999.90;;;;;;;14.82;100.00;99740.91;10547165;28;20119;-73
2023/09/21 21:14:05;;;;;;;1999.90;999.90;;;;;;;14.88;100.00;99744.81;10528743;28;20056;-73
2023/09/21 21:19:07;;;;;;;1999.90;999.90;;;;;;;15.11;100.00;99729.47;10547004;28;20044;-73
2023/09/21 21:24:10;;;;;;;1999.90;999.90;;;;;;;14.88;100.00;99736.06;10528948;28;20080;-73
2023/09/21 21:29:12;;;;;;;1999.90;999.90;;;;;;;14.83;100.00;99739.97;10546635;28;20044;-73
2023/09/21 21:34:14;;;;;;;1999.90;999.90;;;;;;;14.81;100.00;99746.34;10528059;28;20476;-73
2023/09/21 21:39:18;;;;;;;1999.90;999.90;;;;;;;14.74;100.00;99761.88;10546258;28;20043;-73
2023/09/21 21:44:20;;;;;;;1999.90;999.90;;;;;;;14.86;100.00;99750.22;10545517;28;20047;-73
2023/09/21 21:49:23;;;;;;;1999.90;999.90;;;;;;;14.73;100.00;99760.22;10527955;28;20059;-73
2023/09/21 21:54:25;;;;;;;1999.90;999.90;;;;;;;14.96;100.00;99752.84;10528035;28;20044;-73
2023/09/21 21:59:27;;;;;;;1999.90;999.90;;;;;;;14.81;100.00;99748.97;10545488;28;20106;-73